sensor_id;sensor_type;location;lat;lon;timestamp;P1;durP1;ratioP1;P2;durP2;ratioP2
10244;SDS011;5167;52.164;10.530;2024-03-02T00:00:49;22.75;;;13.38;;
10244;SDS011;5167;52.164;10.530;2024-03-02T00:03:16;23.60;;;11.88;;
10244;SDS011;5167;52.164;10.530;2024-03-02T00:05:42;23.85;;;13.25;;
10244;SDS011;5167;52.164;10.530;2024-03-02T00:08:07;20.70;;;12.35;;
10244;SDS011;5167;52.164;10.530;2024-03-02T00:10:35;25.05;;;13.23;;
10244;SDS011;5167;52.164;10.530;2024-03-02T00:13:05;24.13;;;11.73;;
10244;SDS011;5167;52.164;10.530;2024-03-02T00:15:39;24.13;;;12.48;;
10244;SDS011;5167;52.164;10.530;2024-03-02T00:18:12;22.05;;;12.45;;
10244;SDS011;5167;52.164;10.530;2024-03-02T00:20:39;23.27;;;12.20;;
10244;SDS011;5167;52.164;10.530;2024-03-02T00:23:09;21.60;;;10.93;;
10244;SDS011;5167;52.164;10.530;2024-03-02T00:25:52;23.83;;;12.23;;
10244;SDS011;5167;52.164;10.530;2024-03-02T00:28:22;21.50;;;11.30;;
10244;SDS011;5167;52.164;10.530;2024-03-02T00:31:08;20.88;;;11.60;;
10244;SDS011;5167;52.164;10.530;2024-03-02T00:33:39;19.35;;;11.65;;
10244;SDS011;5167;52.164;10.530;2024-03-02T00:36:10;22.70;;;11.10;;
10244;SDS011;5167;52.164;10.530;2024-03-02T00:38:47;21.10;;;12.07;;
10244;SDS011;5167;52.164;10.530;2024-03-02T00:41:15;23.92;;;12.32;;
10244;SDS011;5167;52.164;10.530;2024-03-02T00:43:42;20.50;;;12.47;;
10244;SDS011;5167;52.164;10.530;2024-03-02T00:46:11;24.25;;;12.90;;
10244;SDS011;5167;52.164;10.530;2024-03-02T00:48:38;23.00;;;11.97;;
10244;SDS011;5167;52.164;10.530;2024-03-02T00:51:05;20.58;;;10.40;;
10244;SDS011;5167;52.164;10.530;2024-03-02T00:53:31;20.93;;;10.47;;
10244;SDS011;5167;52.164;10.530;2024-03-02T00:56:00;27.50;;;12.38;;
10244;SDS011;5167;52.164;10.530;2024-03-02T00:58:26;23.73;;;11.60;;
10244;SDS011;5167;52.164;10.530;2024-03-02T01:00:52;22.02;;;11.35;;
10244;SDS011;5167;52.164;10.530;2024-03-02T01:03:17;22.27;;;11.43;;
10244;SDS011;5167;52.164;10.530;2024-03-02T01:05:44;20.63;;;11.03;;
10244;SDS011;5167;52.164;10.530;2024-03-02T01:08:12;20.40;;;11.27;;
10244;SDS011;5167;52.164;10.530;2024-03-02T01:10:37;23.20;;;12.07;;
10244;SDS011;5167;52.164;10.530;2024-03-02T01:13:03;20.53;;;11.30;;
10244;SDS011;5167;52.164;10.530;2024-03-02T01:15:28;22.97;;;11.83;;
10244;SDS011;5167;52.164;10.530;2024-03-02T01:17:54;20.30;;;11.00;;
10244;SDS011;5167;52.164;10.530;2024-03-02T01:20:19;25.63;;;13.17;;
10244;SDS011;5167;52.164;10.530;2024-03-02T01:22:45;21.08;;;11.52;;
10244;SDS011;5167;52.164;10.530;2024-03-02T01:25:10;22.67;;;11.50;;
10244;SDS011;5167;52.164;10.530;2024-03-02T01:27:36;20.97;;;10.93;;
10244;SDS011;5167;52.164;10.530;2024-03-02T01:30:01;20.02;;;11.57;;
10244;SDS011;5167;52.164;10.530;2024-03-02T01:32:27;19.00;;;10.83;;
10244;SDS011;5167;52.164;10.530;2024-03-02T01:34:52;22.63;;;11.03;;
10244;SDS011;5167;52.164;10.530;2024-03-02T01:37:18;22.45;;;11.55;;
10244;SDS011;5167;52.164;10.530;2024-03-02T01:39:43;18.33;;;10.37;;
10244;SDS011;5167;52.164;10.530;2024-03-02T01:42:08;22.13;;;11.33;;
10244;SDS011;5167;52.164;10.530;2024-03-02T01:44:35;22.87;;;10.47;;
10244;SDS011;5167;52.164;10.530;2024-03-02T01:47:01;24.80;;;12.53;;
10244;SDS011;5167;52.164;10.530;2024-03-02T01:49:26;20.67;;;11.07;;
10244;SDS011;5167;52.164;10.530;2024-03-02T01:51:52;25.50;;;12.17;;
10244;SDS011;5167;52.164;10.530;2024-03-02T01:54:18;20.60;;;11.40;;
10244;SDS011;5167;52.164;10.530;2024-03-02T01:56:43;19.50;;;10.60;;
10244;SDS011;5167;52.164;10.530;2024-03-02T01:59:09;22.10;;;12.70;;
10244;SDS011;5167;52.164;10.530;2024-03-02T02:01:34;26.83;;;11.80;;
10244;SDS011;5167;52.164;10.530;2024-03-02T02:04:00;21.13;;;12.03;;
10244;SDS011;5167;52.164;10.530;2024-03-02T02:06:25;21.27;;;11.47;;
10244;SDS011;5167;52.164;10.530;2024-03-02T02:08:51;20.47;;;11.53;;
10244;SDS011;5167;52.164;10.530;2024-03-02T02:11:16;24.47;;;12.37;;
10244;SDS011;5167;52.164;10.530;2024-03-02T02:13:42;19.77;;;9.93;;
10244;SDS011;5167;52.164;10.530;2024-03-02T02:16:08;21.70;;;12.10;;
10244;SDS011;5167;52.164;10.530;2024-03-02T02:18:34;23.73;;;11.00;;
10244;SDS011;5167;52.164;10.530;2024-03-02T02:21:00;20.93;;;11.67;;
10244;SDS011;5167;52.164;10.530;2024-03-02T02:23:26;24.00;;;11.13;;
10244;SDS011;5167;52.164;10.530;2024-03-02T02:25:52;20.83;;;11.40;;
10244;SDS011;5167;52.164;10.530;2024-03-02T02:28:17;23.37;;;12.00;;
10244;SDS011;5167;52.164;10.530;2024-03-02T02:30:43;21.80;;;11.57;;
10244;SDS011;5167;52.164;10.530;2024-03-02T02:33:08;22.03;;;11.87;;
10244;SDS011;5167;52.164;10.530;2024-03-02T02:35:34;23.83;;;12.27;;
10244;SDS011;5167;52.164;10.530;2024-03-02T02:38:00;25.43;;;12.30;;
10244;SDS011;5167;52.164;10.530;2024-03-02T02:40:26;20.10;;;11.03;;
10244;SDS011;5167;52.164;10.530;2024-03-02T02:42:51;25.47;;;10.93;;
10244;SDS011;5167;52.164;10.530;2024-03-02T02:45:17;23.83;;;12.50;;
10244;SDS011;5167;52.164;10.530;2024-03-02T02:47:43;26.47;;;12.67;;
10244;SDS011;5167;52.164;10.530;2024-03-02T02:50:09;26.17;;;12.97;;
10244;SDS011;5167;52.164;10.530;2024-03-02T02:52:36;23.17;;;12.73;;
10244;SDS011;5167;52.164;10.530;2024-03-02T02:55:04;25.07;;;13.13;;
10244;SDS011;5167;52.164;10.530;2024-03-02T02:57:32;24.97;;;12.50;;
10244;SDS011;5167;52.164;10.530;2024-03-02T03:00:04;23.03;;;12.03;;
10244;SDS011;5167;52.164;10.530;2024-03-02T03:02:34;24.57;;;12.90;;
10244;SDS011;5167;52.164;10.530;2024-03-02T03:05:04;28.80;;;14.17;;
10244;SDS011;5167;52.164;10.530;2024-03-02T03:07:31;26.63;;;13.13;;
10244;SDS011;5167;52.164;10.530;2024-03-02T03:09:56;26.77;;;13.73;;
10244;SDS011;5167;52.164;10.530;2024-03-02T03:12:22;25.23;;;13.20;;
10244;SDS011;5167;52.164;10.530;2024-03-02T03:14:47;25.07;;;12.67;;
10244;SDS011;5167;52.164;10.530;2024-03-02T03:17:13;24.27;;;13.13;;
10244;SDS011;5167;52.164;10.530;2024-03-02T03:19:38;30.40;;;14.13;;
10244;SDS011;5167;52.164;10.530;2024-03-02T03:22:04;24.03;;;12.47;;
10244;SDS011;5167;52.164;10.530;2024-03-02T03:24:29;29.07;;;14.03;;
10244;SDS011;5167;52.164;10.530;2024-03-02T03:26:55;27.07;;;12.97;;
10244;SDS011;5167;52.164;10.530;2024-03-02T03:29:20;36.30;;;14.43;;
10244;SDS011;5167;52.164;10.530;2024-03-02T03:31:46;28.77;;;13.50;;
10244;SDS011;5167;52.164;10.530;2024-03-02T03:34:11;29.33;;;13.53;;
10244;SDS011;5167;52.164;10.530;2024-03-02T03:36:40;24.70;;;13.67;;
10244;SDS011;5167;52.164;10.530;2024-03-02T03:39:06;26.47;;;13.53;;
10244;SDS011;5167;52.164;10.530;2024-03-02T03:41:32;23.50;;;13.03;;
10244;SDS011;5167;52.164;10.530;2024-03-02T03:43:57;28.30;;;14.50;;
10244;SDS011;5167;52.164;10.530;2024-03-02T03:46:23;28.37;;;13.73;;
10244;SDS011;5167;52.164;10.530;2024-03-02T03:48:48;31.97;;;14.20;;
10244;SDS011;5167;52.164;10.530;2024-03-02T03:51:14;30.83;;;15.00;;
10244;SDS011;5167;52.164;10.530;2024-03-02T03:53:39;28.70;;;14.93;;
10244;SDS011;5167;52.164;10.530;2024-03-02T03:56:05;30.87;;;14.43;;
10244;SDS011;5167;52.164;10.530;2024-03-02T03:58:30;26.43;;;14.40;;
10244;SDS011;5167;52.164;10.530;2024-03-02T04:00:56;32.33;;;14.80;;
10244;SDS011;5167;52.164;10.530;2024-03-02T04:03:21;33.10;;;15.00;;
10244;SDS011;5167;52.164;10.530;2024-03-02T04:05:47;26.47;;;14.53;;
10244;SDS011;5167;52.164;10.530;2024-03-02T04:08:12;31.80;;;15.00;;
10244;SDS011;5167;52.164;10.530;2024-03-02T04:10:38;30.73;;;15.60;;
10244;SDS011;5167;52.164;10.530;2024-03-02T04:13:05;31.47;;;16.03;;
10244;SDS011;5167;52.164;10.530;2024-03-02T04:15:31;25.23;;;14.17;;
10244;SDS011;5167;52.164;10.530;2024-03-02T04:17:56;29.40;;;15.73;;
10244;SDS011;5167;52.164;10.530;2024-03-02T04:20:22;29.33;;;14.80;;
10244;SDS011;5167;52.164;10.530;2024-03-02T04:22:47;34.77;;;16.93;;
10244;SDS011;5167;52.164;10.530;2024-03-02T04:25:12;36.97;;;16.73;;
10244;SDS011;5167;52.164;10.530;2024-03-02T04:27:38;27.77;;;15.10;;
10244;SDS011;5167;52.164;10.530;2024-03-02T04:30:04;29.40;;;14.93;;
10244;SDS011;5167;52.164;10.530;2024-03-02T04:32:30;32.07;;;15.80;;
10244;SDS011;5167;52.164;10.530;2024-03-02T04:34:56;28.63;;;15.33;;
10244;SDS011;5167;52.164;10.530;2024-03-02T04:37:22;39.17;;;16.97;;
10244;SDS011;5167;52.164;10.530;2024-03-02T04:39:47;32.27;;;16.37;;
10244;SDS011;5167;52.164;10.530;2024-03-02T04:42:13;36.60;;;16.33;;
10244;SDS011;5167;52.164;10.530;2024-03-02T04:44:38;32.20;;;16.53;;
10244;SDS011;5167;52.164;10.530;2024-03-02T04:47:04;30.60;;;15.70;;
10244;SDS011;5167;52.164;10.530;2024-03-02T04:49:30;36.00;;;17.27;;
10244;SDS011;5167;52.164;10.530;2024-03-02T04:51:56;34.67;;;15.80;;
10244;SDS011;5167;52.164;10.530;2024-03-02T04:54:24;38.17;;;16.97;;
10244;SDS011;5167;52.164;10.530;2024-03-02T04:56:50;32.70;;;15.77;;
10244;SDS011;5167;52.164;10.530;2024-03-02T04:59:16;35.20;;;17.00;;
10244;SDS011;5167;52.164;10.530;2024-03-02T05:01:42;38.67;;;16.97;;
10244;SDS011;5167;52.164;10.530;2024-03-02T05:04:09;35.70;;;16.67;;
10244;SDS011;5167;52.164;10.530;2024-03-02T05:06:38;37.50;;;17.33;;
10244;SDS011;5167;52.164;10.530;2024-03-02T05:09:05;35.43;;;17.07;;
10244;SDS011;5167;52.164;10.530;2024-03-02T05:11:31;34.13;;;16.93;;
10244;SDS011;5167;52.164;10.530;2024-03-02T05:14:03;36.17;;;16.13;;
10244;SDS011;5167;52.164;10.530;2024-03-02T05:16:28;31.93;;;15.70;;
10244;SDS011;5167;52.164;10.530;2024-03-02T05:18:54;32.73;;;15.87;;
10244;SDS011;5167;52.164;10.530;2024-03-02T05:21:20;42.97;;;17.47;;
10244;SDS011;5167;52.164;10.530;2024-03-02T05:23:46;32.97;;;15.33;;
10244;SDS011;5167;52.164;10.530;2024-03-02T05:26:11;35.17;;;16.63;;
10244;SDS011;5167;52.164;10.530;2024-03-02T05:28:38;36.27;;;17.80;;
10244;SDS011;5167;52.164;10.530;2024-03-02T05:31:04;37.00;;;17.33;;
10244;SDS011;5167;52.164;10.530;2024-03-02T05:33:30;38.57;;;18.33;;
10244;SDS011;5167;52.164;10.530;2024-03-02T05:35:56;35.60;;;17.33;;
10244;SDS011;5167;52.164;10.530;2024-03-02T05:38:22;33.20;;;15.97;;
10244;SDS011;5167;52.164;10.530;2024-03-02T05:40:48;31.67;;;16.40;;
10244;SDS011;5167;52.164;10.530;2024-03-02T05:43:13;36.77;;;16.70;;
10244;SDS011;5167;52.164;10.530;2024-03-02T05:45:39;33.00;;;16.37;;
10244;SDS011;5167;52.164;10.530;2024-03-02T05:48:05;38.20;;;17.10;;
10244;SDS011;5167;52.164;10.530;2024-03-02T05:50:32;33.00;;;16.57;;
10244;SDS011;5167;52.164;10.530;2024-03-02T05:52:58;32.77;;;16.17;;
10244;SDS011;5167;52.164;10.530;2024-03-02T05:55:23;33.60;;;16.47;;
10244;SDS011;5167;52.164;10.530;2024-03-02T05:57:49;34.90;;;16.80;;
10244;SDS011;5167;52.164;10.530;2024-03-02T06:00:28;37.27;;;16.23;;
10244;SDS011;5167;52.164;10.530;2024-03-02T06:02:53;32.30;;;17.30;;
10244;SDS011;5167;52.164;10.530;2024-03-02T06:05:19;36.13;;;18.43;;
10244;SDS011;5167;52.164;10.530;2024-03-02T06:07:44;35.00;;;16.57;;
10244;SDS011;5167;52.164;10.530;2024-03-02T06:10:10;34.93;;;18.03;;
10244;SDS011;5167;52.164;10.530;2024-03-02T06:12:36;34.43;;;16.93;;
10244;SDS011;5167;52.164;10.530;2024-03-02T06:15:02;36.70;;;17.83;;
10244;SDS011;5167;52.164;10.530;2024-03-02T06:17:28;29.93;;;16.73;;
10244;SDS011;5167;52.164;10.530;2024-03-02T06:19:54;38.50;;;16.80;;
10244;SDS011;5167;52.164;10.530;2024-03-02T06:22:20;33.63;;;16.47;;
10244;SDS011;5167;52.164;10.530;2024-03-02T06:24:47;33.87;;;15.93;;
10244;SDS011;5167;52.164;10.530;2024-03-02T06:27:13;34.80;;;17.03;;
10244;SDS011;5167;52.164;10.530;2024-03-02T06:29:38;32.33;;;15.77;;
10244;SDS011;5167;52.164;10.530;2024-03-02T06:32:04;35.97;;;17.03;;
10244;SDS011;5167;52.164;10.530;2024-03-02T06:34:30;34.40;;;18.67;;
10244;SDS011;5167;52.164;10.530;2024-03-02T06:36:55;31.37;;;16.40;;
10244;SDS011;5167;52.164;10.530;2024-03-02T06:39:21;38.97;;;17.30;;
10244;SDS011;5167;52.164;10.530;2024-03-02T06:41:46;34.53;;;17.17;;
10244;SDS011;5167;52.164;10.530;2024-03-02T06:44:14;33.67;;;16.47;;
10244;SDS011;5167;52.164;10.530;2024-03-02T06:46:40;32.10;;;16.83;;
10244;SDS011;5167;52.164;10.530;2024-03-02T06:49:05;34.17;;;16.83;;
10244;SDS011;5167;52.164;10.530;2024-03-02T06:51:31;38.47;;;16.37;;
10244;SDS011;5167;52.164;10.530;2024-03-02T06:53:58;33.27;;;16.83;;
10244;SDS011;5167;52.164;10.530;2024-03-02T06:56:24;33.63;;;16.63;;
10244;SDS011;5167;52.164;10.530;2024-03-02T06:58:49;32.80;;;17.33;;
10244;SDS011;5167;52.164;10.530;2024-03-02T07:01:15;38.87;;;17.73;;
10244;SDS011;5167;52.164;10.530;2024-03-02T07:03:40;36.37;;;17.63;;
10244;SDS011;5167;52.164;10.530;2024-03-02T07:06:06;36.97;;;17.57;;
10244;SDS011;5167;52.164;10.530;2024-03-02T07:08:31;35.23;;;17.47;;
10244;SDS011;5167;52.164;10.530;2024-03-02T07:10:57;35.93;;;15.97;;
10244;SDS011;5167;52.164;10.530;2024-03-02T07:13:22;35.40;;;16.00;;
10244;SDS011;5167;52.164;10.530;2024-03-02T07:15:48;37.10;;;18.30;;
10244;SDS011;5167;52.164;10.530;2024-03-02T07:18:31;35.90;;;17.03;;
10244;SDS011;5167;52.164;10.530;2024-03-02T07:20:57;34.00;;;17.03;;
10244;SDS011;5167;52.164;10.530;2024-03-02T07:23:28;35.73;;;17.07;;
10244;SDS011;5167;52.164;10.530;2024-03-02T07:25:55;37.80;;;18.03;;
10244;SDS011;5167;52.164;10.530;2024-03-02T07:28:21;35.93;;;18.20;;
10244;SDS011;5167;52.164;10.530;2024-03-02T07:30:57;34.63;;;18.33;;
10244;SDS011;5167;52.164;10.530;2024-03-02T07:33:23;39.03;;;18.40;;
10244;SDS011;5167;52.164;10.530;2024-03-02T07:35:49;34.87;;;18.40;;
10244;SDS011;5167;52.164;10.530;2024-03-02T07:38:15;33.43;;;15.90;;
10244;SDS011;5167;52.164;10.530;2024-03-02T07:40:40;35.73;;;17.17;;
10244;SDS011;5167;52.164;10.530;2024-03-02T07:43:06;35.63;;;17.40;;
10244;SDS011;5167;52.164;10.530;2024-03-02T07:45:31;35.60;;;16.50;;
10244;SDS011;5167;52.164;10.530;2024-03-02T07:47:57;38.77;;;18.27;;
10244;SDS011;5167;52.164;10.530;2024-03-02T07:50:23;34.00;;;17.57;;
10244;SDS011;5167;52.164;10.530;2024-03-02T07:52:48;39.20;;;18.13;;
10244;SDS011;5167;52.164;10.530;2024-03-02T07:55:13;39.17;;;18.13;;
10244;SDS011;5167;52.164;10.530;2024-03-02T07:57:40;41.73;;;16.93;;
10244;SDS011;5167;52.164;10.530;2024-03-02T08:00:05;35.40;;;17.87;;
10244;SDS011;5167;52.164;10.530;2024-03-02T08:02:31;34.13;;;17.00;;
10244;SDS011;5167;52.164;10.530;2024-03-02T08:04:57;34.17;;;17.27;;
10244;SDS011;5167;52.164;10.530;2024-03-02T08:07:22;33.03;;;17.50;;
10244;SDS011;5167;52.164;10.530;2024-03-02T08:09:48;37.93;;;17.67;;
10244;SDS011;5167;52.164;10.530;2024-03-02T08:12:13;30.97;;;15.67;;
10244;SDS011;5167;52.164;10.530;2024-03-02T08:14:39;30.33;;;16.17;;
10244;SDS011;5167;52.164;10.530;2024-03-02T08:17:05;36.03;;;16.40;;
10244;SDS011;5167;52.164;10.530;2024-03-02T08:19:34;28.13;;;16.27;;
10244;SDS011;5167;52.164;10.530;2024-03-02T08:22:00;30.83;;;15.97;;
10244;SDS011;5167;52.164;10.530;2024-03-02T08:24:25;31.03;;;16.33;;
10244;SDS011;5167;52.164;10.530;2024-03-02T08:26:51;28.13;;;15.00;;
10244;SDS011;5167;52.164;10.530;2024-03-02T08:29:16;30.45;;;14.73;;
10244;SDS011;5167;52.164;10.530;2024-03-02T08:31:42;30.77;;;16.02;;
10244;SDS011;5167;52.164;10.530;2024-03-02T08:34:07;31.35;;;15.00;;
10244;SDS011;5167;52.164;10.530;2024-03-02T08:36:34;30.20;;;15.20;;
10244;SDS011;5167;52.164;10.530;2024-03-02T08:38:59;30.02;;;15.27;;
10244;SDS011;5167;52.164;10.530;2024-03-02T08:41:25;27.52;;;14.93;;
10244;SDS011;5167;52.164;10.530;2024-03-02T08:43:50;29.25;;;15.27;;
10244;SDS011;5167;52.164;10.530;2024-03-02T08:46:16;34.05;;;15.27;;
10244;SDS011;5167;52.164;10.530;2024-03-02T08:48:41;30.85;;;15.20;;
10244;SDS011;5167;52.164;10.530;2024-03-02T08:51:07;31.83;;;15.30;;
10244;SDS011;5167;52.164;10.530;2024-03-02T08:53:35;31.10;;;14.73;;
10244;SDS011;5167;52.164;10.530;2024-03-02T08:56:01;28.25;;;14.30;;
10244;SDS011;5167;52.164;10.530;2024-03-02T08:58:26;24.92;;;14.10;;
10244;SDS011;5167;52.164;10.530;2024-03-02T09:00:52;26.27;;;14.05;;
10244;SDS011;5167;52.164;10.530;2024-03-02T09:03:17;29.73;;;15.07;;
10244;SDS011;5167;52.164;10.530;2024-03-02T09:05:43;29.05;;;15.40;;
10244;SDS011;5167;52.164;10.530;2024-03-02T09:08:08;30.00;;;15.43;;
10244;SDS011;5167;52.164;10.530;2024-03-02T09:10:34;30.63;;;15.65;;
10244;SDS011;5167;52.164;10.530;2024-03-02T09:12:59;27.80;;;15.93;;
10244;SDS011;5167;52.164;10.530;2024-03-02T09:15:25;28.40;;;14.90;;
10244;SDS011;5167;52.164;10.530;2024-03-02T09:17:50;29.50;;;15.23;;
10244;SDS011;5167;52.164;10.530;2024-03-02T09:20:16;29.45;;;14.68;;
10244;SDS011;5167;52.164;10.530;2024-03-02T09:22:42;28.92;;;14.38;;
10244;SDS011;5167;52.164;10.530;2024-03-02T09:25:07;31.75;;;14.85;;
10244;SDS011;5167;52.164;10.530;2024-03-02T09:27:35;29.33;;;15.23;;
10244;SDS011;5167;52.164;10.530;2024-03-02T09:30:02;29.85;;;13.45;;
10244;SDS011;5167;52.164;10.530;2024-03-02T09:32:27;26.30;;;13.85;;
10244;SDS011;5167;52.164;10.530;2024-03-02T09:34:53;27.52;;;13.90;;
10244;SDS011;5167;52.164;10.530;2024-03-02T09:37:20;25.88;;;12.65;;
10244;SDS011;5167;52.164;10.530;2024-03-02T09:39:46;26.05;;;13.45;;
10244;SDS011;5167;52.164;10.530;2024-03-02T09:42:12;24.60;;;13.48;;
10244;SDS011;5167;52.164;10.530;2024-03-02T09:44:38;22.88;;;12.95;;
10244;SDS011;5167;52.164;10.530;2024-03-02T09:47:03;24.48;;;12.93;;
10244;SDS011;5167;52.164;10.530;2024-03-02T09:49:30;24.90;;;12.90;;
10244;SDS011;5167;52.164;10.530;2024-03-02T09:51:56;23.10;;;13.15;;
10244;SDS011;5167;52.164;10.530;2024-03-02T09:54:22;25.30;;;13.32;;
10244;SDS011;5167;52.164;10.530;2024-03-02T09:56:47;24.23;;;13.38;;
10244;SDS011;5167;52.164;10.530;2024-03-02T09:59:13;25.10;;;12.25;;
10244;SDS011;5167;52.164;10.530;2024-03-02T10:01:55;23.10;;;12.65;;
10244;SDS011;5167;52.164;10.530;2024-03-02T10:04:25;20.58;;;11.73;;
10244;SDS011;5167;52.164;10.530;2024-03-02T10:06:51;25.67;;;13.10;;
10244;SDS011;5167;52.164;10.530;2024-03-02T10:09:33;22.13;;;12.10;;
10244;SDS011;5167;52.164;10.530;2024-03-02T10:12:06;22.20;;;11.88;;
10244;SDS011;5167;52.164;10.530;2024-03-02T10:14:32;26.40;;;13.48;;
10244;SDS011;5167;52.164;10.530;2024-03-02T10:17:01;25.05;;;13.27;;
10244;SDS011;5167;52.164;10.530;2024-03-02T10:19:28;27.80;;;13.80;;
10244;SDS011;5167;52.164;10.530;2024-03-02T10:21:58;24.85;;;13.05;;
10244;SDS011;5167;52.164;10.530;2024-03-02T10:24:24;22.27;;;12.95;;
10244;SDS011;5167;52.164;10.530;2024-03-02T10:26:50;26.90;;;13.63;;
10244;SDS011;5167;52.164;10.530;2024-03-02T10:29:16;25.67;;;13.63;;
10244;SDS011;5167;52.164;10.530;2024-03-02T10:31:45;24.60;;;13.63;;
10244;SDS011;5167;52.164;10.530;2024-03-02T10:34:12;24.83;;;13.95;;
10244;SDS011;5167;52.164;10.530;2024-03-02T10:36:40;21.45;;;11.82;;
10244;SDS011;5167;52.164;10.530;2024-03-02T10:39:07;21.15;;;11.07;;
10244;SDS011;5167;52.164;10.530;2024-03-02T10:41:37;23.13;;;11.15;;
10244;SDS011;5167;52.164;10.530;2024-03-02T10:44:03;18.65;;;10.63;;
10244;SDS011;5167;52.164;10.530;2024-03-02T10:46:31;19.23;;;9.98;;
10244;SDS011;5167;52.164;10.530;2024-03-02T10:49:02;17.90;;;9.57;;
10244;SDS011;5167;52.164;10.530;2024-03-02T10:51:29;16.67;;;8.63;;
10244;SDS011;5167;52.164;10.530;2024-03-02T10:53:57;14.70;;;9.23;;
10244;SDS011;5167;52.164;10.530;2024-03-02T10:56:27;14.35;;;8.70;;
10244;SDS011;5167;52.164;10.530;2024-03-02T10:59:17;14.73;;;8.50;;
10244;SDS011;5167;52.164;10.530;2024-03-02T11:01:57;15.32;;;7.97;;
10244;SDS011;5167;52.164;10.530;2024-03-02T11:04:26;15.48;;;8.45;;
10244;SDS011;5167;52.164;10.530;2024-03-02T11:07:00;17.20;;;7.82;;
10244;SDS011;5167;52.164;10.530;2024-03-02T11:09:29;14.30;;;7.63;;
10244;SDS011;5167;52.164;10.530;2024-03-02T11:12:06;15.60;;;8.40;;
10244;SDS011;5167;52.164;10.530;2024-03-02T11:14:38;18.88;;;8.45;;
10244;SDS011;5167;52.164;10.530;2024-03-02T11:17:08;14.18;;;8.65;;
10244;SDS011;5167;52.164;10.530;2024-03-02T11:19:35;12.63;;;8.43;;
10244;SDS011;5167;52.164;10.530;2024-03-02T11:22:03;15.43;;;8.63;;
10244;SDS011;5167;52.164;10.530;2024-03-02T11:24:30;16.40;;;8.35;;
10244;SDS011;5167;52.164;10.530;2024-03-02T11:26:59;15.95;;;8.18;;
10244;SDS011;5167;52.164;10.530;2024-03-02T11:29:42;16.90;;;8.50;;
10244;SDS011;5167;52.164;10.530;2024-03-02T11:32:15;15.63;;;7.35;;
10244;SDS011;5167;52.164;10.530;2024-03-02T11:34:42;15.48;;;8.18;;
10244;SDS011;5167;52.164;10.530;2024-03-02T11:37:11;15.77;;;8.70;;
10244;SDS011;5167;52.164;10.530;2024-03-02T11:39:38;16.23;;;7.40;;
10244;SDS011;5167;52.164;10.530;2024-03-02T11:42:07;15.85;;;7.85;;
10244;SDS011;5167;52.164;10.530;2024-03-02T11:44:34;11.38;;;7.20;;
10244;SDS011;5167;52.164;10.530;2024-03-02T11:47:01;14.18;;;7.32;;
10244;SDS011;5167;52.164;10.530;2024-03-02T11:49:40;15.52;;;7.70;;
10244;SDS011;5167;52.164;10.530;2024-03-02T11:52:08;13.85;;;7.70;;
10244;SDS011;5167;52.164;10.530;2024-03-02T11:54:35;13.55;;;7.60;;
10244;SDS011;5167;52.164;10.530;2024-03-02T11:57:06;12.15;;;7.18;;
10244;SDS011;5167;52.164;10.530;2024-03-02T11:59:32;14.45;;;8.20;;
10244;SDS011;5167;52.164;10.530;2024-03-02T12:01:59;11.95;;;7.35;;
10244;SDS011;5167;52.164;10.530;2024-03-02T12:04:25;15.00;;;7.88;;
10244;SDS011;5167;52.164;10.530;2024-03-02T12:06:54;12.10;;;7.07;;
10244;SDS011;5167;52.164;10.530;2024-03-02T12:09:21;13.93;;;7.20;;
10244;SDS011;5167;52.164;10.530;2024-03-02T12:11:47;15.07;;;6.65;;
10244;SDS011;5167;52.164;10.530;2024-03-02T12:14:12;14.60;;;7.95;;
10244;SDS011;5167;52.164;10.530;2024-03-02T12:16:38;11.48;;;5.85;;
10244;SDS011;5167;52.164;10.530;2024-03-02T12:19:05;11.45;;;5.97;;
10244;SDS011;5167;52.164;10.530;2024-03-02T12:21:31;12.80;;;6.60;;
10244;SDS011;5167;52.164;10.530;2024-03-02T12:23:56;9.15;;;5.68;;
10244;SDS011;5167;52.164;10.530;2024-03-02T12:26:22;11.27;;;5.57;;
10244;SDS011;5167;52.164;10.530;2024-03-02T12:28:48;11.45;;;6.35;;
10244;SDS011;5167;52.164;10.530;2024-03-02T12:31:14;13.32;;;6.28;;
10244;SDS011;5167;52.164;10.530;2024-03-02T12:33:40;11.48;;;6.22;;
10244;SDS011;5167;52.164;10.530;2024-03-02T12:36:09;12.02;;;6.22;;
10244;SDS011;5167;52.164;10.530;2024-03-02T12:38:36;12.65;;;6.40;;
10244;SDS011;5167;52.164;10.530;2024-03-02T12:41:02;10.10;;;5.55;;
10244;SDS011;5167;52.164;10.530;2024-03-02T12:43:30;9.57;;;5.28;;
10244;SDS011;5167;52.164;10.530;2024-03-02T12:45:56;9.70;;;4.95;;
10244;SDS011;5167;52.164;10.530;2024-03-02T12:48:23;11.50;;;5.80;;
10244;SDS011;5167;52.164;10.530;2024-03-02T12:50:48;12.52;;;5.22;;
10244;SDS011;5167;52.164;10.530;2024-03-02T12:53:15;9.43;;;5.13;;
10244;SDS011;5167;52.164;10.530;2024-03-02T12:55:41;8.85;;;5.43;;
10244;SDS011;5167;52.164;10.530;2024-03-02T12:58:08;9.07;;;5.45;;
10244;SDS011;5167;52.164;10.530;2024-03-02T13:00:33;8.93;;;5.38;;
10244;SDS011;5167;52.164;10.530;2024-03-02T13:03:00;9.25;;;4.90;;
10244;SDS011;5167;52.164;10.530;2024-03-02T13:05:31;8.80;;;5.00;;
10244;SDS011;5167;52.164;10.530;2024-03-02T13:07:58;7.13;;;4.70;;
10244;SDS011;5167;52.164;10.530;2024-03-02T13:10:24;8.10;;;4.72;;
10244;SDS011;5167;52.164;10.530;2024-03-02T13:12:50;7.82;;;4.60;;
10244;SDS011;5167;52.164;10.530;2024-03-02T13:15:16;8.07;;;4.95;;
10244;SDS011;5167;52.164;10.530;2024-03-02T13:17:41;8.23;;;4.50;;
10244;SDS011;5167;52.164;10.530;2024-03-02T13:20:07;8.52;;;5.00;;
10244;SDS011;5167;52.164;10.530;2024-03-02T13:22:35;7.03;;;4.22;;
10244;SDS011;5167;52.164;10.530;2024-03-02T13:25:01;7.90;;;4.30;;
10244;SDS011;5167;52.164;10.530;2024-03-02T13:27:29;6.07;;;3.75;;
10244;SDS011;5167;52.164;10.530;2024-03-02T13:29:55;6.50;;;4.22;;
10244;SDS011;5167;52.164;10.530;2024-03-02T13:32:20;5.53;;;3.72;;
10244;SDS011;5167;52.164;10.530;2024-03-02T13:34:48;7.45;;;4.22;;
10244;SDS011;5167;52.164;10.530;2024-03-02T13:37:14;7.68;;;4.43;;
10244;SDS011;5167;52.164;10.530;2024-03-02T13:39:40;8.05;;;4.32;;
10244;SDS011;5167;52.164;10.530;2024-03-02T13:42:07;6.15;;;3.55;;
10244;SDS011;5167;52.164;10.530;2024-03-02T13:44:34;6.28;;;3.92;;
10244;SDS011;5167;52.164;10.530;2024-03-02T13:47:00;7.38;;;3.28;;
10244;SDS011;5167;52.164;10.530;2024-03-02T13:49:26;9.13;;;3.50;;
10244;SDS011;5167;52.164;10.530;2024-03-02T13:52:05;6.55;;;4.13;;
10244;SDS011;5167;52.164;10.530;2024-03-02T13:54:41;7.55;;;3.80;;
10244;SDS011;5167;52.164;10.530;2024-03-02T13:57:08;6.50;;;3.50;;
10244;SDS011;5167;52.164;10.530;2024-03-02T13:59:35;5.97;;;3.38;;
10244;SDS011;5167;52.164;10.530;2024-03-02T14:02:01;6.85;;;4.15;;
10244;SDS011;5167;52.164;10.530;2024-03-02T14:04:29;6.35;;;3.38;;
10244;SDS011;5167;52.164;10.530;2024-03-02T14:06:56;5.97;;;3.67;;
10244;SDS011;5167;52.164;10.530;2024-03-02T14:09:22;6.43;;;3.65;;
10244;SDS011;5167;52.164;10.530;2024-03-02T14:11:49;5.72;;;3.67;;
10244;SDS011;5167;52.164;10.530;2024-03-02T14:14:15;7.38;;;3.78;;
10244;SDS011;5167;52.164;10.530;2024-03-02T14:16:41;6.63;;;3.78;;
10244;SDS011;5167;52.164;10.530;2024-03-02T14:19:06;6.25;;;3.70;;
10244;SDS011;5167;52.164;10.530;2024-03-02T14:21:32;6.50;;;4.22;;
10244;SDS011;5167;52.164;10.530;2024-03-02T14:23:57;5.10;;;3.55;;